2001 SAM (2000333S11140)


On this page: IBTrACS data - Map and Plots - Positions - Intensities - Original source data

Summary

Start Nov 28
End Dec 14
Basins SI
SP
LMI 110 kt
Sources jtwc_sh
bom
neumann
In WMO? Yes
Previous storm 2000 RUMBIA (WP)
Previous in basin 2000 NEIL (SP)
Concurrent storms 2000 MISSING (NI)
2000 RUMBIA (WP)
2001 SAM (SP)
2000 RUMBIA (WP)
2001 01F (SP)
Next in basin 2001 01F (SP)
Next storm 2000 RUMBIA (WP)

top of page IBTrACS Data: File Access

No storm imagery available

top of page Plots:

Map of storm track will not appear if FTP is down
Time series of cyclone Maximum Sustained Wind will not appear if FTP is down
Time series of cyclone Minimum Central Pressure will not appear if FTP is down

top of page Track Data:Position

jtwc_sh bom neumann
Date Lat Lon Lat Lon Lat Lon
2000-11-28 00:00:00 -11.0 140.0
2000-11-28 06:00:00 -11.0 138.7
2000-11-28 12:00:00 -10.9 137.3
2000-11-28 18:00:00 -10.7 136.1
2000-11-29 00:00:00 -10.5 135.0
2000-11-29 06:00:00 -10.2 134.1
2000-11-29 12:00:00 -10.0 133.0
2000-11-29 18:00:00 -10.0 132.0
2000-11-30 00:00:00 -10.0 131.0
2000-11-30 06:00:00 -10.0 130.0
2000-11-30 12:00:00 -10.0 129.5
2000-11-30 18:00:00 -10.0 129.3
2000-12-01 00:00:00 -10.1 129.0
2000-12-01 06:00:00 -10.3 128.9
2000-12-01 12:00:00 -10.5 128.8
2000-12-01 18:00:00 -10.6 128.7
2000-12-02 00:00:00 -10.7 128.6
2000-12-02 06:00:00 -10.9 128.4
2000-12-02 12:00:00 -11.0 128.2
2000-12-02 18:00:00 -11.2 128.1
2000-12-03 00:00:00 -11.2 127.8 -11.5 128.2 -11.2 127.8
2000-12-03 06:00:00 -12.2 128.2 -12.0 128.4 -12.2 128.2
2000-12-03 12:00:00 -12.8 128.2 -12.6 128.5 -12.8 128.2
2000-12-03 18:00:00 -13.6 128.1 -13.3 128.3 -13.6 128.1
2000-12-04 00:00:00 -14.3 127.6 -14.0 127.6 -14.3 127.6
jtwc_sh bom neumann
2000-12-04 06:00:00 -14.5 126.6 -14.3 126.9 -14.5 126.6
2000-12-04 12:00:00 -14.6 125.7 -14.4 126.1 -14.6 125.7
2000-12-04 18:00:00 -14.6 125.1 -14.4 125.3 -14.6 125.1
2000-12-05 00:00:00 -14.5 124.4 -14.3 124.8 -14.5 124.4
2000-12-05 06:00:00 -14.5 123.7 -14.0 124.2 -14.5 123.7
2000-12-05 12:00:00 -14.5 123.2 -14.0 123.5 -14.5 123.2
2000-12-05 18:00:00 -14.6 122.7 -14.3 122.7 -14.6 122.7
2000-12-06 00:00:00 -14.8 122.3 -14.5 122.1 -14.8 122.3
2000-12-06 06:00:00 -15.0 121.9 -14.7 122.1 -15.0 121.9
2000-12-06 12:00:00 -15.4 121.7 -15.3 122.0 -15.4 121.7
2000-12-06 18:00:00 -16.1 121.6 -16.0 121.9 -16.1 121.6
2000-12-07 00:00:00 -16.7 121.5 -16.6 121.6 -16.7 121.5
2000-12-07 06:00:00 -17.2 121.3 -17.3 121.2 -17.2 121.3
2000-12-07 12:00:00 -17.6 121.1 -17.7 120.9 -17.6 121.1
2000-12-07 18:00:00 -17.8 121.0 -17.9 120.8 -17.8 121.0
2000-12-08 00:00:00 -18.1 121.0 -18.0 120.9 -18.1 121.0
2000-12-08 06:00:00 -18.4 121.2 -18.3 121.1 -18.4 121.2
2000-12-08 12:00:00 -18.8 121.5 -18.8 121.5 -18.8 121.5
2000-12-08 18:00:00 -19.2 121.8 -19.3 121.8 -19.2 121.8
2000-12-09 00:00:00 -19.7 122.2 -19.7 122.3 -19.7 122.2
2000-12-09 06:00:00 -20.3 122.7 -20.3 122.8 -20.3 122.7
2000-12-09 12:00:00 -20.7 123.1 -20.7 123.5 -20.7 123.1
2000-12-09 18:00:00 -21.0 123.7 -21.0 124.0 -21.0 123.7
2000-12-10 00:00:00 -21.2 124.3 -21.2 124.5 -21.2 124.3
jtwc_sh bom neumann
2000-12-10 06:00:00 -21.3 124.9 -21.6 125.0 -21.3 124.9
2000-12-10 12:00:00 -21.4 125.3 -21.8 125.3 -21.4 125.3
2000-12-10 18:00:00 -21.3 125.8 -21.6 125.8 -21.3 125.8
2000-12-11 00:00:00 -21.5 126.0
2000-12-11 06:00:00 -21.4 126.9
2000-12-11 12:00:00 -21.2 128.0
2000-12-11 18:00:00 -20.5 128.5
2000-12-12 00:00:00 -20.0 129.0
2000-12-12 06:00:00 -20.1 129.5
2000-12-12 12:00:00 -20.5 130.0
2000-12-12 18:00:00 -20.5 131.0
2000-12-13 00:00:00 -20.5 132.0
2000-12-13 06:00:00 -20.5 133.0
2000-12-13 12:00:00 -20.5 134.0
2000-12-13 18:00:00 -20.5 134.8
2000-12-14 00:00:00 -20.5 135.5

top of pageTrack Data:Intensity

jtwc_sh bom neumann
Date Wind Pres Wind Pres Wind Pres
2000-11-28 00:00:00 19. 1005.
2000-11-28 06:00:00 25. 1001.
2000-11-28 12:00:00 23. 1003.
2000-11-28 18:00:00 23. 1002.
2000-11-29 00:00:00 23. 1003.
2000-11-29 06:00:00 25. 1001.
2000-11-29 12:00:00 23. 1003.
2000-11-29 18:00:00 25. 1001.
2000-11-30 00:00:00 23. 1003.
2000-11-30 06:00:00 25. 1001.
2000-11-30 12:00:00 23. 1002.
2000-11-30 18:00:00 25. 1001.
2000-12-01 00:00:00 23. 1003.
2000-12-01 06:00:00 25. 1001.
2000-12-01 12:00:00 25. 1001.
2000-12-01 18:00:00 27. 1000.
2000-12-02 00:00:00 25. 1001.
2000-12-02 06:00:00 29. 999.
2000-12-02 12:00:00 27. 1000.
2000-12-02 18:00:00 29. 998.
2000-12-03 00:00:00 25. 27. 1000. 25.
2000-12-03 06:00:00 25. 31. 997. 25.
2000-12-03 12:00:00 25. 31. 997. 25.
2000-12-03 18:00:00 30. 31. 997. 30.
2000-12-04 00:00:00 30. 29. 998. 30.
jtwc_sh bom neumann
2000-12-04 06:00:00 30. 33. 996. 30.
2000-12-04 12:00:00 30. 35. 994. 30.
2000-12-04 18:00:00 30. 35. 994. 30.
2000-12-05 00:00:00 30. 39. 992. 30.
2000-12-05 06:00:00 30. 41. 990. 30.
2000-12-05 12:00:00 35. 49. 985. 35.
2000-12-05 18:00:00 35. 54. 980. 35.
2000-12-06 00:00:00 45. 54. 980. 45.
2000-12-06 06:00:00 45. 60. 975. 45.
2000-12-06 12:00:00 50. 60. 975. 50.
2000-12-06 18:00:00 55. 60. 975. 55.
2000-12-07 00:00:00 65. 64. 970. 65.
2000-12-07 06:00:00 75. 64. 970. 75.
2000-12-07 12:00:00 85. 76. 960. 85.
2000-12-07 18:00:00 110. 84. 950. 110.
2000-12-08 00:00:00 110. 84. 950. 110.
2000-12-08 06:00:00 110. 89. 945. 110.
2000-12-08 12:00:00 105. 97. 935. 105.
2000-12-08 18:00:00 95. 84. 950. 95.
2000-12-09 00:00:00 80. 76. 960. 80.
2000-12-09 06:00:00 70. 64. 970. 70.
2000-12-09 12:00:00 55. 54. 980. 55.
2000-12-09 18:00:00 50. 54. 980. 50.
2000-12-10 00:00:00 45. 49. 985. 45.
jtwc_sh bom neumann
2000-12-10 06:00:00 40. 49. 985. 40.
2000-12-10 12:00:00 30. 41. 990. 30.
2000-12-10 18:00:00 25. 41. 990. 25.
2000-12-11 00:00:00 39. 992.
2000-12-11 06:00:00 33. 996.
2000-12-11 12:00:00 35. 995.
2000-12-11 18:00:00 35. 994.
2000-12-12 00:00:00 39. 992.
2000-12-12 06:00:00 41. 990.
2000-12-12 12:00:00 45. 987.
2000-12-12 18:00:00 43. 989.
2000-12-13 00:00:00 41. 990.
2000-12-13 06:00:00 39. 992.
2000-12-13 12:00:00 35. 994.
2000-12-13 18:00:00 33. 996.
2000-12-14 00:00:00 29. 998.

top of page Links to source data

Source Source file Format
jtwc_sh bsh032001.txt ATCF
bom Newcyclonedatabase-08repair.csv:Line=19755:SAM CSV file (from Excel file)
neumann tracks.sh:Storm=1206:SAM:BSH032001:JTWC HURDAT